createdAt,value
2023-03-27T00:00:19.196Z,97.21
2023-03-27T00:01:19.247Z,99.06
2023-03-27T00:02:19.353Z,97.84
2023-03-27T00:03:19.398Z,103.27
2023-03-27T00:04:19.405Z,98.30
2023-03-27T00:05:19.385Z,100.36
2023-03-27T00:06:19.435Z,102.82
2023-03-27T00:07:19.465Z,101.14
2023-03-27T00:08:19.588Z,99.43
2023-03-27T00:09:19.550Z,103.54
2023-03-27T00:10:19.634Z,101.25
2023-03-27T00:11:20.148Z,98.75
2023-03-27T00:12:19.662Z,94.01
2023-03-27T00:13:19.695Z,93.82
2023-03-27T00:14:19.747Z,94.95
2023-03-27T00:15:19.799Z,93.88
2023-03-27T00:16:19.869Z,92.77
2023-03-27T00:17:19.954Z,90.33
2023-03-27T00:18:19.912Z,95.02
2023-03-27T00:19:19.974Z,93.16
2023-03-27T00:20:20.000Z,87.21
2023-03-27T00:21:20.039Z,88.08
2023-03-27T00:22:20.085Z,91.30
2023-03-27T00:23:20.152Z,84.06
2023-03-27T00:24:20.173Z,82.93
2023-03-27T00:25:20.226Z,85.50
2023-03-27T00:26:20.277Z,79.71
2023-03-27T00:27:20.301Z,84.04
2023-03-27T00:28:20.359Z,82.94
2023-03-27T00:29:20.400Z,80.60
2023-03-27T00:30:20.458Z,82.55
2023-03-27T00:31:20.543Z,83.83
2023-03-27T00:32:20.539Z,82.37
2023-03-27T00:33:20.587Z,82.09
2023-03-27T00:34:20.639Z,78.64
2023-03-27T00:35:20.708Z,81.72
2023-03-27T00:36:20.721Z,80.85
2023-03-27T00:37:20.762Z,78.19
2023-03-27T00:38:20.804Z,81.45
2023-03-27T00:39:20.848Z,75.83
2023-03-27T00:40:20.905Z,72.88
2023-03-27T00:41:21.033Z,73.60
2023-03-27T00:42:21.003Z,72.37
2023-03-27T00:43:21.050Z,71.12
2023-03-27T00:44:21.101Z,73.41
2023-03-27T00:45:21.147Z,73.24
2023-03-27T00:46:21.292Z,74.56
2023-03-27T00:47:21.241Z,77.28
2023-03-27T00:48:21.292Z,69.98
2023-03-27T00:49:21.423Z,70.25
2023-03-27T00:50:21.393Z,73.74
2023-03-27T00:51:21.467Z,74.41
2023-03-27T00:52:21.494Z,69.99
2023-03-27T00:53:21.539Z,69.15
2023-03-27T00:54:21.581Z,68.68
2023-03-27T00:55:21.637Z,70.50
2023-03-27T00:56:21.756Z,75.11
2023-03-27T00:57:21.725Z,70.74
2023-03-27T00:58:21.773Z,70.84
2023-03-27T00:59:21.819Z,71.93
2023-03-27T01:00:22.639Z,70.90
2023-03-27T01:01:21.963Z,73.64
2023-03-27T01:02:22.030Z,73.92
2023-03-27T01:03:22.079Z,70.63
2023-03-27T01:04:22.053Z,71.40
2023-03-27T01:05:22.098Z,70.84
2023-03-27T01:06:22.176Z,71.57
2023-03-27T01:07:22.203Z,75.44
2023-03-27T01:08:22.265Z,72.01
2023-03-27T01:09:22.370Z,72.42
2023-03-27T01:10:22.368Z,77.04
2023-03-27T01:11:22.458Z,75.15
2023-03-27T01:12:23.210Z,74.29
2023-03-27T01:13:22.524Z,74.19
2023-03-27T01:14:22.556Z,74.69
2023-03-27T01:15:23.145Z,72.31
2023-03-27T01:16:22.673Z,77.73
2023-03-27T01:17:22.746Z,76.84
2023-03-27T01:18:22.738Z,77.26
2023-03-27T01:19:22.790Z,74.83
2023-03-27T01:20:22.833Z,77.61
2023-03-27T01:21:22.884Z,78.40
2023-03-27T01:22:22.955Z,78.12
2023-03-27T01:23:35.505Z,81.32
2023-03-27T01:24:24.161Z,81.42
2023-03-27T01:25:22.963Z,81.69
2023-03-27T01:26:35.601Z,82.06
2023-03-27T01:27:23.967Z,81.50
2023-03-27T01:28:22.955Z,81.84
2023-03-27T01:29:22.951Z,82.89
2023-03-27T01:30:22.986Z,83.22
2023-03-27T01:31:22.969Z,87.41
2023-03-27T01:32:23.013Z,83.48
2023-03-27T01:33:22.912Z,85.52
2023-03-27T01:34:22.904Z,80.36
2023-03-27T01:35:22.941Z,79.50
2023-03-27T01:36:22.887Z,82.81
2023-03-27T01:37:22.880Z,83.23
2023-03-27T01:38:22.902Z,85.69
2023-03-27T01:39:22.942Z,83.75
2023-03-27T01:40:22.989Z,82.01
2023-03-27T01:41:23.015Z,85.85
2023-03-27T01:42:23.052Z,86.40
2023-03-27T01:43:23.116Z,84.23
2023-03-27T01:44:23.142Z,85.21
2023-03-27T01:45:24.162Z,85.94
2023-03-27T01:46:23.248Z,87.43
2023-03-27T01:47:23.705Z,86.98
2023-03-27T01:48:23.308Z,88.00
2023-03-27T01:49:23.338Z,89.54
2023-03-27T01:50:23.376Z,87.93
2023-03-27T01:51:23.459Z,88.65
2023-03-27T01:52:23.439Z,92.86
2023-03-27T01:53:23.474Z,89.70
2023-03-27T01:54:23.523Z,91.90
2023-03-27T01:55:23.564Z,93.47
2023-03-27T01:56:23.660Z,90.80
2023-03-27T01:57:23.641Z,94.88
2023-03-27T01:58:23.694Z,93.72
2023-03-27T01:59:23.838Z,93.41
2023-03-27T02:00:23.750Z,94.21
2023-03-27T02:01:23.812Z,93.51
2023-03-27T02:02:23.877Z,93.93
2023-03-27T02:03:23.909Z,92.68
2023-03-27T02:04:23.980Z,97.05
2023-03-27T02:05:23.974Z,92.34
2023-03-27T02:06:24.019Z,93.54
2023-03-27T02:07:24.089Z,97.32
2023-03-27T02:08:24.137Z,94.68
2023-03-27T02:09:24.173Z,97.68
2023-03-27T02:10:24.217Z,94.84
2023-03-27T02:11:24.257Z,95.48
2023-03-27T02:12:24.302Z,97.61
2023-03-27T02:13:24.334Z,97.77
2023-03-27T02:14:24.373Z,99.86
2023-03-27T02:15:26.268Z,99.98
2023-03-27T02:16:24.471Z,98.66
2023-03-27T02:17:24.522Z,95.33
2023-03-27T02:18:24.510Z,96.11
2023-03-27T02:19:24.554Z,98.28
2023-03-27T02:20:24.678Z,96.86
2023-03-27T02:21:24.631Z,99.04
2023-03-27T02:22:37.498Z,97.59
2023-03-27T02:23:25.666Z,97.76
2023-03-27T02:24:24.666Z,97.98
2023-03-27T02:25:24.664Z,98.54
2023-03-27T02:26:24.646Z,100.43
2023-03-27T02:27:24.662Z,99.63
2023-03-27T02:28:24.628Z,96.18
2023-03-27T02:29:24.621Z,94.25
2023-03-27T02:30:24.614Z,93.47
2023-03-27T02:31:32.601Z,93.53
2023-03-27T02:32:25.662Z,93.70
2023-03-27T02:33:24.598Z,94.03
2023-03-27T02:34:24.600Z,93.70
2023-03-27T02:35:24.610Z,95.71
2023-03-27T02:36:24.638Z,98.83
2023-03-27T02:37:32.372Z,92.11
2023-03-27T02:38:25.674Z,92.39
2023-03-27T02:39:24.688Z,92.94
2023-03-27T02:40:24.695Z,94.06
2023-03-27T02:41:24.707Z,91.95
2023-03-27T02:42:24.725Z,97.37
2023-03-27T02:43:24.750Z,98.12
2023-03-27T02:44:24.782Z,101.36
2023-03-27T02:45:24.810Z,101.26
2023-03-27T02:46:24.894Z,96.25
2023-03-27T02:47:24.901Z,96.85
2023-03-27T02:48:24.872Z,98.55
2023-03-27T02:49:24.887Z,97.12
2023-03-27T02:50:24.936Z,97.72
2023-03-27T02:51:24.934Z,95.63
2023-03-27T02:52:24.967Z,98.75
2023-03-27T02:53:24.981Z,96.28
2023-03-27T02:54:25.006Z,101.07
2023-03-27T02:55:25.011Z,100.71
2023-03-27T02:56:25.010Z,100.74
2023-03-27T02:57:25.341Z,99.02
2023-03-27T02:58:25.034Z,104.49
2023-03-27T02:59:25.080Z,99.51
2023-03-27T03:00:25.097Z,103.01
2023-03-27T03:01:25.146Z,101.38
2023-03-27T03:02:25.189Z,99.04
2023-03-27T03:03:25.168Z,99.85
2023-03-27T03:04:25.177Z,101.25
2023-03-27T03:05:25.113Z,101.20
2023-03-27T03:06:25.138Z,101.66
2023-03-27T03:07:25.144Z,101.60
2023-03-27T03:08:25.146Z,101.88
2023-03-27T03:09:25.157Z,101.10
2023-03-27T03:10:25.169Z,101.84
2023-03-27T03:11:25.163Z,101.56
2023-03-27T03:12:25.162Z,101.19
2023-03-27T03:13:25.188Z,101.55
2023-03-27T03:14:25.181Z,103.95
2023-03-27T03:15:25.179Z,101.39
2023-03-27T03:16:25.184Z,105.36
2023-03-27T03:17:25.203Z,103.61
2023-03-27T03:18:25.193Z,102.19
2023-03-27T03:19:25.186Z,102.59
2023-03-27T03:20:25.176Z,100.89
2023-03-27T03:21:25.182Z,103.26
2023-03-27T03:22:25.181Z,100.18
2023-03-27T03:23:25.175Z,99.78
2023-03-27T03:24:25.197Z,100.86
2023-03-27T03:25:25.183Z,102.73
2023-03-27T03:26:25.177Z,102.79
2023-03-27T03:27:25.173Z,102.86
2023-03-27T03:28:25.231Z,104.49
2023-03-27T03:29:25.190Z,105.93
2023-03-27T03:30:25.201Z,107.14
2023-03-27T03:31:25.212Z,105.04
2023-03-27T03:32:25.230Z,105.11
2023-03-27T03:33:25.192Z,106.15
2023-03-27T03:34:25.203Z,102.66
2023-03-27T03:35:25.260Z,103.76
2023-03-27T03:36:25.224Z,101.56
2023-03-27T03:37:25.221Z,103.32
2023-03-27T03:38:25.223Z,103.14
2023-03-27T03:39:25.245Z,99.54
2023-03-27T03:40:25.250Z,98.17
2023-03-27T03:41:25.260Z,99.05
2023-03-27T03:43:25.262Z,99.46
2023-03-27T03:44:25.724Z,98.58
2023-03-27T03:45:25.277Z,99.48
2023-03-27T03:47:25.293Z,96.60
2023-03-27T03:48:25.331Z,94.90
2023-03-27T03:49:25.302Z,97.56
2023-03-27T03:50:25.728Z,98.43
2023-03-27T03:51:25.284Z,98.78
2023-03-27T03:52:25.284Z,95.92
2023-03-27T03:53:25.286Z,93.41
2023-03-27T03:54:25.286Z,96.60
2023-03-27T03:55:25.289Z,98.58
2023-03-27T03:56:25.273Z,95.40
2023-03-27T03:57:25.291Z,97.95
2023-03-27T03:59:25.332Z,96.41
2023-03-27T04:00:25.720Z,99.74
2023-03-27T04:01:25.317Z,98.59
2023-03-27T04:03:25.397Z,96.47
2023-03-27T04:04:25.305Z,96.68
2023-03-27T04:05:25.318Z,97.48
2023-03-27T04:07:25.319Z,97.00
2023-03-27T04:08:25.319Z,97.19
2023-03-27T04:09:25.308Z,98.98
2023-03-27T04:11:25.313Z,97.84
2023-03-27T04:12:25.322Z,98.18
2023-03-27T04:13:25.339Z,98.94
2023-03-27T04:15:25.350Z,95.79
2023-03-27T04:16:25.359Z,95.98
2023-03-27T04:17:25.416Z,96.50
2023-03-27T04:18:25.401Z,94.57
2023-03-27T04:19:26.218Z,94.65
2023-03-27T04:20:25.344Z,94.95
2023-03-27T04:21:25.357Z,96.26
2023-03-27T04:22:25.358Z,96.30
2023-03-27T04:23:25.359Z,96.20
2023-03-27T04:24:25.364Z,94.08
2023-03-27T04:25:26.218Z,94.05
2023-03-27T04:27:25.372Z,94.61
2023-03-27T04:28:25.374Z,96.03
2023-03-27T04:29:25.425Z,94.71
2023-03-27T04:31:25.393Z,95.04
2023-03-27T04:32:25.505Z,94.36
2023-03-27T04:33:25.405Z,94.97
2023-03-27T04:34:26.405Z,95.05
2023-03-27T04:35:25.422Z,94.98
2023-03-27T04:36:25.518Z,95.71
2023-03-27T04:37:25.381Z,95.11
2023-03-27T04:38:25.384Z,98.46
2023-03-27T04:39:25.418Z,95.60
2023-03-27T04:40:25.360Z,94.22
2023-03-27T04:41:26.230Z,93.90
2023-03-27T04:43:25.353Z,93.92
2023-03-27T04:44:25.346Z,93.62
2023-03-27T04:45:25.330Z,93.88
2023-03-27T04:47:25.388Z,93.58
2023-03-27T04:48:26.232Z,90.04
2023-03-27T04:49:25.296Z,91.75
2023-03-27T04:51:25.282Z,91.76
2023-03-27T04:52:25.285Z,92.61
2023-03-27T04:53:25.274Z,95.45
2023-03-27T04:55:25.360Z,96.93
2023-03-27T04:56:25.258Z,92.66
2023-03-27T04:57:25.250Z,95.59
2023-03-27T04:59:25.260Z,92.88
2023-03-27T05:00:25.300Z,91.49
2023-03-27T05:01:25.427Z,92.01
2023-03-27T05:03:25.318Z,91.54
2023-03-27T05:04:25.318Z,92.56
2023-03-27T05:05:25.342Z,91.04
2023-03-27T05:06:25.351Z,95.06
2023-03-27T05:07:25.369Z,92.67
2023-03-27T05:08:25.444Z,96.64
2023-03-27T05:09:25.469Z,93.02
2023-03-27T05:10:25.492Z,91.51
2023-03-27T05:11:25.499Z,89.22
2023-03-27T05:12:25.518Z,91.30
2023-03-27T05:13:25.515Z,92.42
2023-03-27T05:14:25.537Z,87.13
2023-03-27T05:15:25.555Z,91.30
2023-03-27T05:16:25.599Z,89.80
2023-03-27T05:17:25.598Z,91.89
2023-03-27T05:18:25.598Z,90.37
2023-03-27T05:19:26.746Z,89.58
2023-03-27T05:20:25.686Z,88.66
2023-03-27T05:21:25.706Z,89.74
2023-03-27T05:22:25.719Z,87.96
2023-03-27T05:23:25.735Z,91.90
2023-03-27T05:24:25.755Z,96.19
2023-03-27T05:25:25.760Z,100.48
2023-03-27T05:26:25.769Z,101.01
2023-03-27T05:27:25.782Z,106.32
2023-03-27T05:28:25.772Z,106.52
2023-03-27T05:29:25.768Z,111.42
2023-03-27T05:30:25.849Z,121.23
2023-03-27T05:31:25.856Z,125.17
2023-03-27T05:32:25.928Z,134.44
2023-03-27T05:33:26.291Z,145.71
2023-03-27T05:34:25.992Z,157.44
2023-03-27T05:35:26.091Z,168.79
2023-03-27T05:36:26.094Z,180.70
2023-03-27T05:37:27.435Z,190.39
2023-03-27T05:38:26.190Z,201.32
2023-03-27T05:39:26.235Z,212.73
2023-03-27T05:40:26.294Z,221.79
2023-03-27T05:41:26.313Z,233.21
2023-03-27T05:42:26.352Z,244.72
2023-03-27T05:43:26.393Z,250.00
2023-03-27T05:44:26.421Z,250.00
2023-03-27T05:45:26.445Z,250.00
2023-03-27T05:46:26.518Z,249.92
2023-03-27T05:47:26.515Z,250.00
2023-03-27T05:48:26.518Z,250.00
2023-03-27T05:49:26.519Z,249.51
2023-03-27T05:50:26.542Z,250.00
2023-03-27T05:51:26.550Z,250.00
2023-03-27T05:52:28.796Z,250.00
2023-03-27T05:53:29.013Z,249.13
2023-03-27T05:54:26.640Z,249.49
2023-03-27T05:55:27.944Z,250.00
2023-03-27T05:56:26.632Z,250.00
2023-03-27T05:57:26.633Z,250.00
2023-03-27T05:59:26.624Z,250.00
2023-03-27T06:00:26.622Z,249.72
2023-03-27T06:01:26.619Z,247.77
2023-03-27T06:03:27.364Z,250.00
2023-03-27T06:04:26.668Z,249.66
2023-03-27T06:05:26.795Z,248.62
2023-03-27T06:07:26.724Z,250.00
2023-03-27T06:08:26.733Z,248.98
2023-03-27T06:09:26.755Z,249.58
2023-03-27T06:10:26.801Z,247.91
2023-03-27T06:11:26.855Z,249.06
2023-03-27T06:12:26.915Z,250.70
2023-03-27T06:13:26.953Z,250.78
2023-03-27T06:14:27.010Z,250.00
2023-03-27T06:15:27.071Z,250.00
2023-03-27T06:16:27.276Z,249.26
2023-03-27T06:17:27.192Z,249.42
2023-03-27T06:18:27.240Z,250.00
2023-03-27T06:19:27.327Z,249.32
2023-03-27T06:20:27.357Z,250.32
2023-03-27T06:21:27.426Z,250.00
2023-03-27T06:22:27.463Z,250.00
2023-03-27T06:23:27.527Z,249.59
2023-03-27T06:24:27.572Z,248.45
2023-03-27T06:25:27.639Z,249.29
2023-03-27T06:26:27.680Z,259.29
2023-03-27T06:27:27.718Z,172.54
2023-03-27T06:28:27.731Z,95.52
2023-03-27T06:29:27.760Z,42.94
2023-03-27T06:30:27.816Z,26.41
2023-03-27T06:31:27.856Z,23.08
2023-03-27T06:32:27.875Z,13.10
2023-03-27T06:33:27.856Z,14.27
2023-03-27T06:34:27.856Z,22.57
2023-03-27T06:35:27.928Z,26.18
2023-03-27T06:36:28.029Z,33.02
2023-03-27T06:37:27.972Z,45.69
2023-03-27T06:38:27.978Z,67.52
2023-03-27T06:39:28.773Z,84.37
2023-03-27T06:40:28.216Z,94.80
2023-03-27T06:41:28.101Z,102.63
2023-03-27T06:42:28.126Z,106.02
2023-03-27T06:43:28.145Z,107.59
2023-03-27T06:44:28.201Z,109.39
2023-03-27T06:45:28.190Z,112.28
2023-03-27T06:46:42.815Z,114.98
2023-03-27T06:47:29.391Z,115.17
2023-03-27T06:48:28.445Z,115.87
2023-03-27T06:49:28.389Z,119.48
2023-03-27T06:50:28.413Z,127.59
2023-03-27T06:51:28.410Z,144.40
2023-03-27T06:52:28.433Z,153.55
2023-03-27T06:53:29.549Z,156.71
2023-03-27T06:54:28.800Z,160.49
2023-03-27T06:55:28.657Z,161.48
2023-03-27T06:56:28.582Z,165.93
2023-03-27T06:57:28.579Z,169.44
2023-03-27T06:58:28.612Z,173.35
2023-03-27T06:59:28.609Z,177.09
2023-03-27T07:00:28.654Z,180.33
2023-03-27T07:01:28.716Z,181.13
2023-03-27T07:02:28.759Z,182.28
2023-03-27T07:03:28.776Z,183.44
2023-03-27T07:04:28.833Z,185.91
2023-03-27T07:05:29.003Z,188.11
2023-03-27T07:06:28.953Z,188.58
2023-03-27T07:07:29.019Z,190.82
2023-03-27T07:08:29.064Z,193.17
2023-03-27T07:09:29.102Z,192.90
2023-03-27T07:10:29.157Z,195.15
2023-03-27T07:11:31.695Z,196.17
2023-03-27T07:12:29.181Z,198.19
2023-03-27T07:13:29.181Z,198.66
2023-03-27T07:15:29.169Z,203.84
2023-03-27T07:16:29.201Z,204.78
2023-03-27T07:17:41.875Z,205.45
2023-03-27T07:18:30.177Z,205.57
2023-03-27T07:19:29.139Z,205.92
2023-03-27T07:20:29.238Z,205.88
2023-03-27T07:21:29.132Z,205.64
2023-03-27T07:23:29.127Z,205.47
2023-03-27T07:24:29.139Z,205.12
2023-03-27T07:25:29.786Z,204.72
2023-03-27T07:27:29.161Z,202.60
2023-03-27T07:28:29.786Z,202.33
2023-03-27T07:29:29.262Z,202.09
2023-03-27T07:30:29.296Z,201.12
2023-03-27T07:31:42.409Z,200.01
2023-03-27T07:32:37.280Z,200.04
2023-03-27T07:33:30.407Z,200.13
2023-03-27T07:35:29.323Z,200.14
2023-03-27T07:36:29.294Z,199.40
2023-03-27T07:37:29.272Z,198.78
2023-03-27T07:39:29.264Z,197.61
2023-03-27T07:40:38.929Z,196.71
2023-03-27T07:41:30.268Z,196.79
2023-03-27T07:43:29.754Z,196.95
2023-03-27T07:44:29.213Z,195.59
2023-03-27T07:45:29.221Z,194.30
2023-03-27T07:46:29.268Z,193.92
2023-03-27T07:47:29.282Z,192.74
2023-03-27T07:48:29.195Z,192.46
2023-03-27T07:49:38.865Z,191.26
2023-03-27T07:50:30.180Z,191.33
2023-03-27T07:51:29.163Z,191.39
2023-03-27T07:52:29.160Z,191.40
2023-03-27T07:53:33.318Z,189.71
2023-03-27T07:54:30.164Z,190.90
2023-03-27T07:55:29.151Z,191.02
2023-03-27T07:56:29.134Z,190.04
2023-03-27T07:57:29.275Z,188.84
2023-03-27T07:59:29.115Z,187.78
2023-03-27T08:00:29.109Z,187.21
2023-03-27T08:01:29.093Z,187.07
2023-03-27T08:03:29.238Z,186.26
2023-03-27T08:04:29.179Z,184.74
2023-03-27T08:05:29.070Z,184.09
2023-03-27T08:06:29.805Z,184.53
2023-03-27T08:07:29.050Z,182.84
2023-03-27T08:08:29.042Z,182.58
2023-03-27T08:09:29.038Z,181.99
2023-03-27T08:11:31.053Z,181.05
2023-03-27T08:12:29.044Z,179.35
2023-03-27T08:13:29.095Z,178.15
2023-03-27T08:14:29.132Z,177.96
2023-03-27T08:15:29.158Z,178.69
2023-03-27T08:16:29.249Z,179.75
2023-03-27T08:17:29.331Z,180.03
2023-03-27T08:18:29.245Z,179.81
2023-03-27T08:19:29.293Z,180.61
2023-03-27T08:20:29.328Z,180.13
2023-03-27T08:21:29.491Z,180.00
2023-03-27T08:23:29.379Z,180.36
2023-03-27T08:24:29.402Z,178.85
2023-03-27T08:25:29.413Z,178.75
2023-03-27T08:26:29.445Z,177.25
2023-03-27T08:27:30.315Z,178.92
2023-03-27T08:28:29.450Z,148.11
2023-03-27T08:29:29.555Z,112.96
2023-03-27T08:30:29.556Z,79.10
2023-03-27T08:31:29.613Z,63.65
2023-03-27T08:32:29.609Z,61.13
2023-03-27T08:33:29.693Z,62.70
2023-03-27T08:34:29.768Z,71.07
2023-03-27T08:35:30.254Z,80.74
2023-03-27T08:36:29.733Z,88.22
2023-03-27T08:37:29.826Z,96.62
2023-03-27T08:39:29.747Z,110.41
2023-03-27T08:40:29.811Z,114.66
2023-03-27T08:41:29.850Z,117.70
2023-03-27T08:42:29.911Z,121.60
2023-03-27T08:43:29.954Z,124.61
2023-03-27T08:44:30.009Z,126.94
2023-03-27T08:45:30.015Z,130.58
2023-03-27T08:46:30.097Z,134.73
2023-03-27T08:47:30.104Z,138.86
2023-03-27T08:48:30.045Z,141.82
2023-03-27T08:49:30.045Z,145.58
2023-03-27T08:50:30.048Z,147.68
2023-03-27T08:51:30.075Z,152.44
2023-03-27T08:52:30.191Z,155.64
2023-03-27T08:53:30.177Z,158.27
2023-03-27T08:54:30.243Z,161.80
2023-03-27T08:55:30.319Z,162.98
2023-03-27T08:56:30.351Z,164.37
2023-03-27T08:57:30.405Z,167.98
2023-03-27T08:58:30.468Z,171.69
2023-03-27T08:59:30.508Z,173.64
2023-03-27T09:00:30.601Z,175.86
2023-03-27T09:01:30.622Z,177.55
2023-03-27T09:02:30.692Z,180.62
2023-03-27T09:03:30.820Z,182.46
2023-03-27T09:04:30.725Z,185.14
2023-03-27T09:05:30.754Z,186.02
2023-03-27T09:06:30.796Z,187.03
2023-03-27T09:07:30.824Z,190.58
2023-03-27T09:08:30.871Z,190.56
2023-03-27T09:09:30.918Z,191.71
2023-03-27T09:10:30.936Z,194.12
2023-03-27T09:11:30.969Z,196.00
2023-03-27T09:12:30.984Z,197.55
2023-03-27T09:13:31.065Z,199.56
2023-03-27T09:14:31.029Z,201.81
2023-03-27T09:15:31.054Z,203.39
2023-03-27T09:16:31.127Z,205.84
2023-03-27T09:17:31.115Z,206.18
2023-03-27T09:19:31.133Z,206.54
2023-03-27T09:20:32.152Z,206.62
2023-03-27T09:21:31.157Z,206.67
2023-03-27T09:23:31.099Z,207.39
2023-03-27T09:24:31.089Z,208.37
2023-03-27T09:25:31.101Z,208.75
2023-03-27T09:27:31.084Z,213.04
2023-03-27T09:28:31.095Z,213.46
2023-03-27T09:29:31.065Z,214.44
2023-03-27T09:30:31.846Z,215.36
2023-03-27T09:31:31.057Z,216.27
2023-03-27T09:32:33.535Z,216.55
2023-03-27T09:33:31.030Z,218.35
2023-03-27T09:35:31.088Z,218.50
2023-03-27T09:36:31.010Z,220.56
2023-03-27T09:37:31.016Z,221.21
2023-03-27T09:39:31.058Z,222.62
2023-03-27T09:40:30.994Z,222.89
2023-03-27T09:41:31.846Z,224.08
2023-03-27T09:43:30.978Z,226.72
2023-03-27T09:44:30.955Z,227.26
2023-03-27T09:45:30.953Z,227.35
2023-03-27T09:46:30.985Z,229.17
2023-03-27T09:47:31.385Z,229.02
2023-03-27T09:48:30.933Z,230.77
2023-03-27T09:49:30.916Z,231.87
2023-03-27T09:50:30.927Z,232.93
2023-03-27T09:51:30.912Z,234.48
2023-03-27T09:52:30.904Z,235.85
2023-03-27T09:53:30.922Z,235.95
2023-03-27T09:55:30.950Z,238.62
2023-03-27T09:56:30.888Z,239.49
2023-03-27T09:57:30.868Z,240.36
2023-03-27T09:59:30.856Z,241.38
2023-03-27T10:00:30.908Z,241.96
2023-03-27T10:01:30.913Z,242.95
2023-03-27T10:03:30.848Z,244.74
2023-03-27T10:04:31.781Z,245.83
2023-03-27T10:05:30.826Z,245.73
2023-03-27T10:07:30.801Z,247.52
2023-03-27T10:08:30.806Z,247.91
2023-03-27T10:09:30.804Z,249.15
2023-03-27T10:11:30.786Z,248.85
2023-03-27T10:12:30.863Z,249.97
2023-03-27T10:13:30.783Z,248.60
2023-03-27T10:14:30.776Z,247.60
2023-03-27T10:15:30.813Z,226.10
2023-03-27T10:16:30.901Z,198.33
2023-03-27T10:17:30.782Z,182.00
2023-03-27T10:18:30.762Z,155.36
2023-03-27T10:19:30.751Z,142.82
2023-03-27T10:20:30.727Z,132.13
2023-03-27T10:21:30.897Z,122.24
2023-03-27T10:23:30.770Z,116.40
2023-03-27T10:24:30.781Z,112.21
2023-03-27T10:25:30.702Z,104.30
2023-03-27T10:27:30.875Z,96.72
2023-03-27T10:28:30.684Z,90.57
2023-03-27T10:29:30.691Z,99.03
2023-03-27T10:30:30.679Z,102.80
2023-03-27T10:31:31.385Z,109.18
2023-03-27T10:32:30.673Z,112.63
2023-03-27T10:33:30.687Z,121.68
2023-03-27T10:34:30.649Z,125.83
2023-03-27T10:35:30.706Z,131.24
2023-03-27T10:36:30.625Z,133.85
2023-03-27T10:37:30.622Z,135.42
2023-03-27T10:38:31.382Z,137.79
2023-03-27T10:39:30.632Z,139.19
2023-03-27T10:40:30.601Z,145.02
2023-03-27T10:41:30.611Z,149.79
2023-03-27T10:42:33.435Z,152.72
2023-03-27T10:43:30.618Z,157.18
2023-03-27T10:44:30.701Z,162.21
2023-03-27T10:45:30.654Z,166.26
2023-03-27T10:47:30.574Z,173.35
2023-03-27T10:48:30.626Z,176.97
2023-03-27T10:49:30.544Z,179.01
2023-03-27T10:51:39.362Z,186.02
2023-03-27T10:52:31.522Z,186.30
2023-03-27T10:53:30.596Z,187.57
2023-03-27T10:55:30.502Z,195.02
2023-03-27T10:56:30.588Z,203.16
2023-03-27T10:57:32.296Z,205.07
2023-03-27T10:59:41.143Z,210.46
2023-03-27T11:00:31.469Z,210.65
2023-03-27T11:01:30.508Z,211.50
2023-03-27T11:03:30.490Z,215.32
2023-03-27T11:04:30.525Z,220.61
2023-03-27T11:05:30.522Z,223.25
2023-03-27T11:07:30.415Z,225.42
2023-03-27T11:08:30.403Z,224.30
2023-03-27T11:09:30.472Z,224.92
2023-03-27T11:11:30.388Z,223.75
2023-03-27T11:12:32.409Z,222.97
2023-03-27T11:13:30.486Z,220.90
2023-03-27T11:15:30.361Z,221.85
2023-03-27T11:16:30.389Z,221.06
2023-03-27T11:17:30.370Z,220.07
2023-03-27T11:19:30.343Z,218.64
2023-03-27T11:20:30.328Z,218.86
2023-03-27T11:21:30.368Z,217.63
2023-03-27T11:22:30.415Z,217.61
2023-03-27T11:23:30.460Z,215.79
2023-03-27T11:24:30.523Z,216.33
2023-03-27T11:25:30.562Z,217.30
2023-03-27T11:26:30.620Z,215.94
2023-03-27T11:27:30.669Z,216.13
2023-03-27T11:28:30.700Z,215.02
2023-03-27T11:29:30.768Z,214.89
2023-03-27T11:30:30.822Z,215.14
2023-03-27T11:31:30.912Z,213.23
2023-03-27T11:32:30.945Z,212.44
2023-03-27T11:33:30.972Z,213.63
2023-03-27T11:34:31.024Z,213.27
2023-03-27T11:35:31.097Z,213.10
2023-03-27T11:36:31.127Z,212.30
2023-03-27T11:37:31.158Z,212.14
2023-03-27T11:38:31.185Z,212.01
2023-03-27T11:39:31.238Z,210.74
2023-03-27T11:40:31.233Z,210.56
2023-03-27T11:41:31.254Z,210.68
2023-03-27T11:42:31.439Z,209.99
2023-03-27T11:43:31.364Z,210.85
2023-03-27T11:44:31.898Z,210.54
2023-03-27T11:45:31.396Z,209.34
2023-03-27T11:46:31.470Z,208.65
2023-03-27T11:47:31.933Z,208.55
2023-03-27T11:48:31.406Z,208.88
2023-03-27T11:49:31.400Z,207.41
2023-03-27T11:51:32.322Z,205.66
2023-03-27T11:52:31.412Z,201.08
2023-03-27T11:53:31.572Z,194.39
2023-03-27T11:55:32.571Z,187.46
2023-03-27T11:56:31.474Z,181.13
2023-03-27T11:57:31.508Z,178.12
2023-03-27T11:58:31.537Z,172.34
2023-03-27T11:59:32.823Z,169.94
2023-03-27T12:00:31.642Z,166.32
2023-03-27T12:01:31.685Z,161.32
2023-03-27T12:02:31.817Z,158.13
2023-03-27T12:03:31.867Z,157.56
2023-03-27T12:04:31.835Z,158.82
2023-03-27T12:05:31.885Z,159.62
2023-03-27T12:06:31.939Z,156.65
2023-03-27T12:07:36.642Z,154.89
2023-03-27T12:08:32.955Z,154.94
2023-03-27T12:09:31.942Z,154.74
2023-03-27T12:11:31.921Z,153.41
2023-03-27T12:12:31.926Z,152.37
2023-03-27T12:13:41.294Z,151.84
2023-03-27T12:14:40.766Z,151.87
2023-03-27T12:15:32.914Z,151.94
2023-03-27T12:16:31.909Z,152.00
2023-03-27T12:17:31.916Z,151.27
2023-03-27T12:19:38.253Z,150.82
2023-03-27T12:20:32.871Z,151.87
2023-03-27T12:21:31.861Z,151.88
2023-03-27T12:23:31.848Z,150.48
2023-03-27T12:24:31.852Z,151.22
2023-03-27T12:25:33.623Z,150.87
2023-03-27T12:27:31.815Z,150.94
2023-03-27T12:28:31.814Z,151.27
2023-03-27T12:29:31.845Z,151.12
2023-03-27T12:31:31.973Z,149.14
2023-03-27T12:32:31.809Z,149.34
2023-03-27T12:33:31.778Z,150.36
2023-03-27T12:35:31.840Z,148.20
2023-03-27T12:36:31.761Z,146.50
2023-03-27T12:37:31.782Z,148.27
2023-03-27T12:38:31.787Z,147.14
2023-03-27T12:39:31.731Z,146.54
2023-03-27T12:40:31.726Z,146.07
2023-03-27T12:41:31.713Z,144.52
2023-03-27T12:43:31.715Z,146.63
2023-03-27T12:44:31.793Z,145.88
2023-03-27T12:45:33.173Z,144.20
2023-03-27T12:46:31.814Z,144.29
2023-03-27T12:47:31.683Z,144.38
2023-03-27T12:48:31.666Z,144.75
2023-03-27T12:49:40.675Z,144.79
2023-03-27T12:50:32.659Z,144.32
2023-03-27T12:51:31.642Z,144.43
2023-03-27T12:52:31.649Z,144.23
2023-03-27T13:08:48.996Z,25.00
2023-03-27T13:09:48.931Z,25.00
2023-03-27T13:10:48.927Z,25.00
2023-03-27T13:11:48.907Z,25.00
2023-03-27T13:12:48.909Z,25.00
2023-03-27T13:13:48.898Z,9.90
2023-03-27T13:14:48.894Z,1.64
2023-03-27T13:15:49.010Z,6.33
2023-03-27T13:16:48.872Z,15.11
2023-03-27T13:17:48.962Z,25.00
2023-03-27T13:18:50.934Z,25.15
2023-03-27T13:19:49.604Z,18.21
2023-03-27T13:20:48.851Z,3.75
2023-03-27T13:21:48.840Z,0.00
2023-03-27T13:22:48.831Z,0.00
2023-03-27T13:23:48.821Z,0.00
2023-03-27T13:24:48.803Z,2.46
2023-03-27T13:25:48.841Z,25.00
2023-03-27T13:26:48.806Z,25.00
2023-03-27T13:27:48.828Z,25.00
2023-03-27T13:28:48.803Z,25.80
2023-03-27T13:29:48.792Z,25.01
2023-03-27T13:30:48.819Z,25.00
2023-03-27T13:31:48.803Z,26.09
2023-03-27T13:32:48.799Z,26.76
2023-03-27T13:33:48.806Z,25.74
2023-03-27T13:34:48.798Z,26.94
2023-03-27T13:35:50.200Z,25.00
2023-03-27T13:36:48.734Z,25.17
2023-03-27T13:37:48.735Z,20.87
2023-03-27T13:38:48.710Z,20.28
2023-03-27T13:39:48.700Z,17.19
2023-03-27T13:40:49.108Z,14.22
2023-03-27T13:41:48.695Z,25.85
2023-03-27T13:42:48.694Z,26.46
2023-03-27T13:43:48.681Z,25.00
2023-03-27T13:44:48.675Z,25.00
2023-03-27T13:45:48.651Z,27.09
2023-03-27T13:46:48.662Z,25.72
2023-03-27T13:47:48.676Z,26.82
2023-03-27T13:48:48.639Z,27.33
2023-03-27T13:49:48.636Z,25.96
2023-03-27T13:50:48.632Z,27.42
2023-03-27T13:51:48.625Z,26.95
2023-03-27T13:52:48.613Z,27.93
2023-03-27T13:53:48.603Z,27.46
2023-03-27T13:54:48.606Z,27.08